Time;durP1;ratioP1;P1;durP2;ratioP2;P2;SDS_P1;SDS_P2;PMS_P1;PMS_P2;Temp;Humidity;BMP_temperature;BMP_pressure;BME280_temperature;BME280_humidity;BME280_pressure;Samples;Min_cycle;Max_cycle;Signal;HPM_P1;HPM_P2
2022/07/21 00:00:33;;;;;;;9.85;5.95;;;27.20;53.70;;;;;;4991050;28;20070;-69
2022/07/21 00:03:01;;;;;;;9.60;6.80;;;27.20;53.80;;;;;;4986989;28;20053;-69
2022/07/21 00:05:27;;;;;;;10.32;6.53;;;27.20;53.90;;;;;;4986578;28;20387;-68
2022/07/21 00:07:53;;;;;;;9.10;6.25;;;27.10;54.10;;;;;;4984185;28;20027;-68
2022/07/21 00:10:21;;;;;;;11.05;5.97;;;27.10;54.10;;;;;;4991725;28;20035;-68
2022/07/21 00:12:47;;;;;;;8.75;6.35;;;27.10;54.10;;;;;;4992644;28;20034;-68
2022/07/21 00:15:16;;;;;;;8.60;5.85;;;27.00;54.00;;;;;;4992316;28;20033;-68
2022/07/21 00:17:42;;;;;;;7.63;6.13;;;27.00;54.20;;;;;;4983712;28;20026;-68
2022/07/21 00:20:10;;;;;;;9.93;6.07;;;27.00;54.30;;;;;;4992721;28;20038;-68
2022/07/21 00:22:36;;;;;;;10.32;5.95;;;26.90;54.30;;;;;;4991719;28;20023;-69
2022/07/21 00:25:03;;;;;;;10.13;6.20;;;26.90;54.50;;;;;;4992143;28;20034;-68
2022/07/21 00:27:29;;;;;;;9.95;6.80;;;26.90;54.60;;;;;;4991376;28;20027;-69
2022/07/21 00:29:54;;;;;;;8.85;6.53;;;26.80;54.50;;;;;;4991087;28;20037;-69
2022/07/21 00:32:20;;;;;;;9.50;6.18;;;26.80;54.80;;;;;;4992558;28;20536;-69
2022/07/21 00:34:45;;;;;;;7.70;6.18;;;26.80;54.90;;;;;;4990599;28;20154;-69
2022/07/21 00:37:11;;;;;;;8.68;6.85;;;26.70;55.00;;;;;;4992106;28;20041;-69
2022/07/21 00:39:38;;;;;;;8.75;6.10;;;26.70;55.10;;;;;;4991231;28;20026;-69
2022/07/21 00:42:04;;;;;;;8.30;5.80;;;26.60;55.20;;;;;;4991674;28;20038;-69
2022/07/21 00:44:30;;;;;;;11.32;6.22;;;26.60;55.20;;;;;;4991254;28;20378;-69
2022/07/21 00:46:57;;;;;;;9.20;6.30;;;26.60;55.10;;;;;;4990694;28;20039;-69
2022/07/21 00:49:23;;;;;;;9.02;6.20;;;26.60;55.30;;;;;;4992182;28;20589;-69
2022/07/21 00:51:49;;;;;;;10.27;6.00;;;26.60;55.90;;;;;;4990052;28;20115;-69
2022/07/21 00:54:17;;;;;;;7.57;6.18;;;26.50;55.40;;;;;;4991823;28;20101;-69
2022/07/21 00:56:45;;;;;;;9.73;6.88;;;26.50;55.50;;;;;;4991105;28;20048;-69
2022/07/21 00:59:11;;;;;;;9.15;5.80;;;26.50;55.60;;;;;;4973813;28;20034;-70
2022/07/21 01:01:37;;;;;;;8.05;5.82;;;26.40;55.50;;;;;;4989785;28;20643;-70
2022/07/21 01:04:03;;;;;;;7.57;5.65;;;26.40;55.60;;;;;;4991202;28;20027;-70
2022/07/21 01:06:28;;;;;;;9.75;6.00;;;26.40;55.70;;;;;;4990118;28;20042;-69
2022/07/21 01:08:55;;;;;;;10.07;6.78;;;26.40;55.80;;;;;;4991292;28;20077;-69
2022/07/21 01:11:24;;;;;;;9.18;6.07;;;26.30;56.00;;;;;;4992476;28;20461;-71
2022/07/21 01:13:50;;;;;;;9.40;5.95;;;26.30;55.90;;;;;;4990904;28;20030;-71
2022/07/21 01:16:16;;;;;;;8.68;6.50;;;26.30;55.90;;;;;;4974655;28;20069;-70
2022/07/21 01:18:42;;;;;;;6.88;5.80;;;26.30;56.00;;;;;;4990867;28;20041;-70
2022/07/21 01:21:34;;;;;;;8.52;6.25;;;26.20;56.10;;;;;;4996386;28;20552;-70
2022/07/21 01:24:00;;;;;;;8.30;5.55;;;26.20;56.10;;;;;;4992989;28;20452;-70
2022/07/21 01:26:27;;;;;;;11.00;6.53;;;26.20;56.30;;;;;;4995123;28;20480;-70
2022/07/21 01:28:53;;;;;;;11.27;5.93;;;26.20;56.40;;;;;;4994792;28;20050;-70
2022/07/21 01:31:19;;;;;;;8.90;6.50;;;26.10;56.50;;;;;;4995211;28;20065;-71
2022/07/21 01:33:44;;;;;;;9.20;6.15;;;26.10;56.60;;;;;;4994257;28;20567;-72
2022/07/21 01:36:10;;;;;;;8.38;6.05;;;26.10;56.60;;;;;;4996316;28;20088;-70
2022/07/21 01:41:29;;;;;;;10.25;7.03;;;26.00;56.70;;;;;;4995725;28;20437;-70
2022/07/21 01:44:04;;;;;;;9.00;6.22;;;26.00;56.70;;;;;;4994767;28;20037;-70
2022/07/21 01:46:31;;;;;;;12.32;6.45;;;26.00;56.80;;;;;;4994079;28;20409;-70
2022/07/21 01:48:57;;;;;;;7.63;6.22;;;26.00;56.80;;;;;;4995080;28;20027;-70
2022/07/21 01:51:23;;;;;;;12.38;6.43;;;26.00;56.90;;;;;;4993947;28;20030;-70
2022/07/21 01:53:49;;;;;;;8.95;5.97;;;26.00;56.80;;;;;;4991535;28;20125;-71
2022/07/21 01:56:18;;;;;;;9.23;6.40;;;26.00;56.90;;;;;;4973683;28;20087;-71
2022/07/21 01:58:44;;;;;;;8.27;5.95;;;25.90;56.90;;;;;;4976246;28;20092;-71
2022/07/21 02:01:09;;;;;;;10.45;6.97;;;25.90;57.00;;;;;;4995186;28;20370;-70
2022/07/21 02:03:35;;;;;;;11.50;5.95;;;25.90;57.10;;;;;;4995186;28;20033;-71
2022/07/21 02:06:04;;;;;;;10.80;7.20;;;25.90;57.10;;;;;;4995101;28;20085;-72
2022/07/21 02:08:30;;;;;;;12.10;6.47;;;25.90;57.20;;;;;;4994437;28;20037;-72
2022/07/21 02:10:56;;;;;;;10.30;6.60;;;25.90;57.20;;;;;;4995568;28;20486;-72
2022/07/21 02:13:22;;;;;;;8.02;5.95;;;25.80;57.80;;;;;;4994077;28;20026;-72
2022/07/21 02:15:47;;;;;;;7.68;6.03;;;25.80;57.50;;;;;;4995365;28;20037;-72
2022/07/21 02:18:13;;;;;;;9.60;6.70;;;25.80;57.50;;;;;;4976210;28;20030;-72
2022/07/21 02:20:38;;;;;;;8.20;6.60;;;25.80;57.60;;;;;;4995082;28;20027;-72
2022/07/21 02:23:04;;;;;;;10.60;6.57;;;25.80;57.60;;;;;;4993719;28;20030;-72
2022/07/21 02:25:30;;;;;;;12.68;6.45;;;25.80;57.60;;;;;;4994954;28;20485;-72
2022/07/21 02:27:56;;;;;;;10.55;6.22;;;25.70;57.60;;;;;;4993623;28;20545;-71
2022/07/21 02:30:21;;;;;;;8.13;6.25;;;25.70;57.70;;;;;;4973589;28;20429;-71
2022/07/21 02:32:47;;;;;;;14.00;6.18;;;25.70;57.80;;;;;;4989546;28;20015;-71
2022/07/21 02:35:13;;;;;;;11.32;5.50;;;25.70;57.90;;;;;;4994711;28;20089;-71
2022/07/21 02:37:39;;;;;;;8.93;6.20;;;25.70;58.00;;;;;;4994372;28;20413;-71
2022/07/21 02:40:06;;;;;;;7.95;5.95;;;25.70;58.00;;;;;;4994195;28;20026;-71
2022/07/21 02:42:32;;;;;;;10.85;6.55;;;25.60;57.90;;;;;;4993220;28;20109;-71
2022/07/21 02:44:58;;;;;;;7.70;6.10;;;25.60;58.00;;;;;;4977321;28;20145;-71
2022/07/21 02:47:23;;;;;;;9.32;5.88;;;25.60;58.10;;;;;;4976054;28;20027;-71
2022/07/21 02:49:49;;;;;;;10.27;5.65;;;25.60;58.30;;;;;;4993748;28;20030;-71
2022/07/21 02:52:14;;;;;;;9.63;5.70;;;25.60;58.30;;;;;;4993738;28;20027;-71
2022/07/21 02:54:40;;;;;;;7.95;6.30;;;25.50;58.20;;;;;;4994083;28;20018;-70
2022/07/21 02:57:05;;;;;;;13.35;6.10;;;25.50;58.30;;;;;;4993586;28;20059;-71
2022/07/21 02:59:31;;;;;;;9.30;6.18;;;25.50;58.40;;;;;;4993914;28;20023;-72
2022/07/21 03:01:57;;;;;;;8.55;5.40;;;25.50;58.40;;;;;;4992395;28;20036;-73
2022/07/21 03:04:22;;;;;;;11.85;5.88;;;25.50;58.60;;;;;;4994624;28;20106;-78
2022/07/21 03:06:48;;;;;;;7.53;5.47;;;25.50;58.50;;;;;;4992571;28;20068;-75
2022/07/21 03:09:15;;;;;;;8.85;5.13;;;25.50;58.50;;;;;;4994549;28;20030;-77
2022/07/21 03:11:41;;;;;;;8.05;5.63;;;25.50;58.50;;;;;;4990791;28;20070;-76
2022/07/21 03:14:06;;;;;;;10.65;5.75;;;25.50;58.50;;;;;;4994244;28;20023;-76
2022/07/21 03:16:32;;;;;;;12.07;6.95;;;25.50;58.50;;;;;;4993004;28;20096;-76
2022/07/21 03:18:58;;;;;;;8.10;5.95;;;25.50;58.60;;;;;;4994192;28;20041;-76
2022/07/21 03:21:24;;;;;;;9.13;5.72;;;25.50;58.70;;;;;;4993871;28;20030;-76
2022/07/21 03:23:49;;;;;;;11.07;5.03;;;25.50;58.60;;;;;;4993841;28;20041;-77
2022/07/21 03:26:16;;;;;;;9.75;5.97;;;25.50;58.70;;;;;;4993604;28;20037;-77
2022/07/21 03:28:43;;;;;;;8.13;5.70;;;25.50;58.90;;;;;;4993039;28;20125;-76
2022/07/21 03:31:09;;;;;;;10.10;5.95;;;25.50;58.80;;;;;;4993722;28;20055;-76
2022/07/21 03:33:35;;;;;;;6.90;5.50;;;25.50;58.80;;;;;;4993047;28;20050;-75
2022/07/21 03:36:01;;;;;;;8.18;5.70;;;25.50;58.80;;;;;;4993750;28;20062;-75
2022/07/21 03:38:27;;;;;;;10.30;5.97;;;25.50;58.80;;;;;;4974130;28;20037;-76
2022/07/21 03:40:53;;;;;;;10.70;5.72;;;25.50;58.80;;;;;;4993101;28;20027;-76
2022/07/21 03:43:19;;;;;;;8.05;5.07;;;25.60;58.80;;;;;;4993468;28;20034;-78
2022/07/21 03:45:45;;;;;;;9.50;5.35;;;25.60;58.90;;;;;;4993100;28;20405;-79
2022/07/21 03:48:11;;;;;;;11.20;6.18;;;25.60;59.00;;;;;;4991587;28;20030;-77
2022/07/21 03:50:40;;;;;;;7.53;5.40;;;25.60;58.90;;;;;;4993535;28;20030;-77
2022/07/21 03:53:08;;;;;;;6.88;5.38;;;25.60;59.00;;;;;;4987822;28;20037;-76
2022/07/21 03:55:34;;;;;;;7.80;5.05;;;25.60;59.10;;;;;;4992029;28;20386;-77
2022/07/21 03:58:03;;;;;;;8.73;4.90;;;25.60;59.00;;;;;;4996682;28;20458;-77
2022/07/21 04:00:37;;;;;;;7.60;4.55;;;25.60;58.90;;;;;;4999924;28;20027;-77
2022/07/21 04:03:04;;;;;;;6.43;4.95;;;25.60;59.00;;;;;;4995198;28;20034;-77
2022/07/21 04:05:31;;;;;;;7.13;4.70;;;25.60;59.20;;;;;;4993610;28;20037;-77
2022/07/21 04:07:57;;;;;;;8.20;4.53;;;25.60;59.00;;;;;;4991710;28;20058;-77
2022/07/21 04:10:27;;;;;;;7.20;5.03;;;25.60;59.00;;;;;;4993358;28;20105;-77
2022/07/21 04:12:53;;;;;;;11.20;4.90;;;25.60;59.10;;;;;;4993308;28;20053;-77
2022/07/21 04:15:19;;;;;;;7.43;4.47;;;25.60;59.00;;;;;;4993470;28;20038;-79
2022/07/21 04:17:45;;;;;;;7.70;4.70;;;25.60;59.20;;;;;;4989108;28;20049;-76
2022/07/21 04:20:13;;;;;;;7.95;5.10;;;25.60;59.50;;;;;;4974979;28;20022;-73
2022/07/21 04:22:40;;;;;;;9.48;4.93;;;25.60;59.50;;;;;;4991272;28;20033;-73
2022/07/21 04:25:06;;;;;;;10.43;5.13;;;25.60;59.40;;;;;;4994125;28;20042;-74
2022/07/21 04:27:34;;;;;;;8.18;5.63;;;25.70;59.40;;;;;;4974938;28;20029;-74
2022/07/21 04:30:00;;;;;;;9.23;4.55;;;25.70;59.70;;;;;;4963837;28;20082;-74
2022/07/21 04:32:26;;;;;;;7.10;5.13;;;25.70;59.80;;;;;;4999802;28;20026;-74
2022/07/21 04:34:52;;;;;;;8.30;4.80;;;25.70;59.50;;;;;;5001900;28;20505;-74
2022/07/21 04:37:18;;;;;;;6.93;4.97;;;25.70;59.50;;;;;;4998133;28;20394;-74
2022/07/21 04:39:44;;;;;;;14.30;5.82;;;25.70;59.60;;;;;;4996834;28;20033;-77
2022/07/21 04:42:12;;;;;;;6.00;4.97;;;25.80;59.70;;;;;;4992512;28;20038;-74
2022/07/21 04:44:37;;;;;;;6.47;5.03;;;25.80;59.90;;;;;;4976036;28;20221;-74
2022/07/21 04:47:03;;;;;;;6.88;4.95;;;25.80;59.80;;;;;;4992454;28;20034;-75
2022/07/21 04:49:28;;;;;;;8.82;5.47;;;25.80;59.90;;;;;;4992949;28;20113;-75
2022/07/21 04:51:54;;;;;;;9.75;5.20;;;25.80;59.80;;;;;;4993140;28;20030;-72
2022/07/21 04:54:22;;;;;;;8.32;6.03;;;25.80;59.90;;;;;;4992159;28;20027;-73
2022/07/21 04:56:48;;;;;;;10.25;6.15;;;25.90;59.70;;;;;;4990528;28;20034;-73
2022/07/21 04:59:14;;;;;;;11.68;5.82;;;26.00;59.70;;;;;;4992265;28;20030;-74
2022/07/21 05:01:39;;;;;;;10.15;5.25;;;26.00;59.60;;;;;;4990408;28;20117;-73
2022/07/21 05:04:06;;;;;;;9.40;5.75;;;26.00;59.80;;;;;;4992482;28;20037;-72
2022/07/21 05:06:32;;;;;;;10.45;5.35;;;26.10;59.80;;;;;;4990853;28;20034;-72
2022/07/21 05:08:58;;;;;;;10.23;5.63;;;26.10;59.50;;;;;;4992361;28;20042;-72
2022/07/21 05:11:24;;;;;;;8.48;5.18;;;26.10;59.40;;;;;;4989798;28;20030;-72
2022/07/21 05:13:50;;;;;;;8.68;6.15;;;26.20;59.40;;;;;;4990975;28;20047;-72
2022/07/21 05:16:16;;;;;;;14.43;7.35;;;26.20;59.40;;;;;;4991618;28;20031;-73
2022/07/21 05:18:41;;;;;;;10.55;8.02;;;26.20;59.60;;;;;;4973802;28;20041;-72
2022/07/21 05:21:07;;;;;;;11.32;8.82;;;26.20;59.70;;;;;;4991307;28;20046;-73
2022/07/21 05:23:33;;;;;;;12.38;10.40;;;26.20;60.00;;;;;;4974035;28;20026;-72
2022/07/21 05:25:58;;;;;;;14.52;10.70;;;26.20;60.40;;;;;;4990967;28;20054;-73
2022/07/21 05:28:24;;;;;;;13.63;11.90;;;26.20;60.60;;;;;;4991236;28;20089;-73
2022/07/21 05:30:50;;;;;;;13.98;11.82;;;26.20;60.90;;;;;;4990752;28;20026;-73
2022/07/21 05:33:15;;;;;;;14.88;11.23;;;26.30;61.50;;;;;;4967282;28;20059;-72
2022/07/21 05:35:41;;;;;;;15.55;12.60;;;26.30;61.60;;;;;;4963991;28;20042;-72
2022/07/21 05:38:06;;;;;;;15.43;12.63;;;26.20;61.50;;;;;;4972075;28;20031;-72
2022/07/21 05:40:32;;;;;;;16.08;12.35;;;26.30;61.70;;;;;;4972344;28;20042;-72
2022/07/21 05:42:58;;;;;;;14.75;12.32;;;26.30;61.80;;;;;;4970900;28;20410;-72
2022/07/21 05:45:23;;;;;;;16.40;12.48;;;26.30;62.10;;;;;;4972389;28;20382;-72
2022/07/21 05:47:49;;;;;;;18.17;13.75;;;26.30;62.10;;;;;;4971452;28;20169;-73
2022/07/21 05:50:15;;;;;;;15.68;12.38;;;26.30;62.10;;;;;;4967044;28;20098;-73
2022/07/21 05:52:41;;;;;;;16.98;13.77;;;26.30;62.20;;;;;;4962707;28;20019;-73
2022/07/21 05:55:08;;;;;;;19.38;13.35;;;26.30;62.30;;;;;;4972461;28;20033;-74
2022/07/21 05:57:33;;;;;;;18.13;13.60;;;26.30;62.40;;;;;;4971813;28;20054;-74
2022/07/21 05:59:59;;;;;;;15.63;12.43;;;26.30;62.50;;;;;;4971681;28;20133;-73
2022/07/21 06:02:26;;;;;;;15.23;13.23;;;26.30;62.60;;;;;;4970995;28;20035;-72
2022/07/21 06:04:52;;;;;;;17.75;13.65;;;26.30;62.60;;;;;;4971957;28;20027;-74
2022/07/21 06:07:19;;;;;;;15.82;13.27;;;26.30;62.80;;;;;;4968678;28;20394;-73
2022/07/21 06:09:48;;;;;;;15.05;12.70;;;26.30;62.80;;;;;;4974527;28;20031;-75
2022/07/21 06:12:13;;;;;;;17.35;13.82;;;26.30;62.80;;;;;;4975189;28;20031;-72
2022/07/21 06:14:39;;;;;;;19.73;14.32;;;26.30;62.90;;;;;;4975394;28;20045;-69
2022/07/21 06:17:07;;;;;;;18.95;13.65;;;26.30;63.10;;;;;;4974882;28;20037;-69
2022/07/21 06:19:33;;;;;;;17.45;13.63;;;26.30;63.10;;;;;;4975478;28;20425;-68
2022/07/21 06:21:59;;;;;;;15.88;13.07;;;26.30;63.10;;;;;;4974292;28;20056;-75
2022/07/21 06:24:26;;;;;;;16.92;13.73;;;26.30;63.00;;;;;;4975413;28;20023;-72
2022/07/21 06:26:55;;;;;;;15.07;12.98;;;26.30;63.20;;;;;;4974641;28;20066;-72
2022/07/21 06:29:22;;;;;;;15.32;12.05;;;26.30;63.30;;;;;;4975075;28;20122;-72
2022/07/21 06:31:47;;;;;;;19.52;13.48;;;26.30;63.60;;;;;;4989751;28;20037;-72
2022/07/21 06:34:13;;;;;;;16.67;13.32;;;26.40;63.40;;;;;;4987408;28;20494;-73
2022/07/21 06:36:39;;;;;;;17.27;13.32;;;26.40;63.40;;;;;;4992553;28;20117;-73
2022/07/21 06:39:04;;;;;;;18.05;14.00;;;26.40;63.50;;;;;;4988714;28;20437;-73
2022/07/21 06:41:30;;;;;;;19.00;14.93;;;26.50;63.60;;;;;;4992044;28;20054;-73
2022/07/21 06:43:55;;;;;;;18.42;12.75;;;26.50;63.50;;;;;;4980824;28;20522;-73
2022/07/21 06:46:21;;;;;;;19.98;14.02;;;26.50;63.40;;;;;;4992693;28;20038;-73
2022/07/21 06:48:47;;;;;;;18.77;12.90;;;26.50;63.20;;;;;;4993319;28;20096;-72
2022/07/21 06:51:12;;;;;;;15.38;12.52;;;26.50;63.40;;;;;;4992960;28;20057;-71
2022/07/21 06:53:38;;;;;;;15.55;12.73;;;26.60;63.60;;;;;;4993947;28;20026;-71
2022/07/21 06:56:04;;;;;;;15.90;13.73;;;26.60;63.70;;;;;;4994003;28;20042;-71
2022/07/21 06:58:32;;;;;;;17.27;13.23;;;26.60;63.50;;;;;;4993850;28;20084;-72
2022/07/21 07:00:58;;;;;;;21.17;14.35;;;26.60;63.50;;;;;;4994032;28;20044;-71
2022/07/21 07:03:24;;;;;;;15.88;12.90;;;26.60;63.70;;;;;;4976120;28;20026;-71
2022/07/21 07:05:51;;;;;;;16.27;12.23;;;26.60;63.30;;;;;;4993017;28;20056;-70
2022/07/21 07:08:17;;;;;;;15.85;11.82;;;26.60;63.10;;;;;;4994079;28;20022;-70
2022/07/21 07:10:44;;;;;;;14.90;13.02;;;26.60;63.10;;;;;;4991962;28;20109;-70
2022/07/21 07:13:10;;;;;;;18.73;13.45;;;26.70;63.10;;;;;;4989866;28;20049;-70
2022/07/21 07:15:36;;;;;;;16.30;12.77;;;26.70;63.20;;;;;;4993301;28;20022;-70
2022/07/21 07:18:02;;;;;;;16.23;11.73;;;26.70;63.20;;;;;;4992206;28;20049;-71
2022/07/21 07:20:27;;;;;;;16.05;12.63;;;26.70;63.50;;;;;;4993175;28;20113;-71
2022/07/21 07:22:53;;;;;;;14.50;11.35;;;26.60;63.30;;;;;;4993225;28;20038;-72
2022/07/21 07:25:19;;;;;;;15.85;12.25;;;26.60;63.50;;;;;;4980782;28;20391;-73
2022/07/21 07:27:49;;;;;;;15.07;11.50;;;26.60;63.50;;;;;;4992287;28;20045;-70
2022/07/21 07:30:18;;;;;;;13.55;11.40;;;26.70;63.70;;;;;;4993394;28;20026;-72
2022/07/21 07:32:43;;;;;;;17.30;12.68;;;26.70;63.50;;;;;;4993195;28;20045;-72
2022/07/21 07:35:10;;;;;;;16.30;11.80;;;26.70;63.70;;;;;;4992917;28;20058;-72
2022/07/21 07:37:38;;;;;;;14.45;11.02;;;26.70;63.60;;;;;;4992773;28;20031;-73
2022/07/21 07:40:07;;;;;;;15.05;11.63;;;26.80;63.60;;;;;;4975591;28;20018;-72
2022/07/21 07:42:34;;;;;;;16.83;12.40;;;26.80;63.70;;;;;;4993018;28;20038;-73
2022/07/21 07:45:00;;;;;;;13.10;11.48;;;26.80;63.40;;;;;;4992790;28;20038;-72
2022/07/21 07:47:27;;;;;;;17.30;11.45;;;26.80;63.60;;;;;;4992559;28;20109;-72
2022/07/21 07:49:52;;;;;;;12.48;11.18;;;26.80;63.50;;;;;;4991662;28;20026;-71
2022/07/21 07:52:19;;;;;;;15.00;11.05;;;26.90;63.50;;;;;;4993188;28;20031;-71
2022/07/21 07:54:45;;;;;;;22.35;12.25;;;26.90;63.50;;;;;;4992340;28;20113;-71
2022/07/21 07:57:11;;;;;;;15.20;10.93;;;27.00;63.30;;;;;;4993029;28;20584;-71
2022/07/21 07:59:36;;;;;;;14.60;10.95;;;27.00;63.40;;;;;;4993234;28;20026;-71
2022/07/21 08:02:02;;;;;;;15.60;10.95;;;27.10;63.20;;;;;;4992886;28;20391;-72
2022/07/21 08:04:28;;;;;;;15.68;10.73;;;27.10;63.10;;;;;;4992715;28;20018;-71
2022/07/21 08:06:54;;;;;;;12.68;10.63;;;27.20;63.50;;;;;;4983219;28;20401;-72
2022/07/21 08:09:19;;;;;;;13.38;10.35;;;27.20;63.20;;;;;;4990731;28;20029;-72
2022/07/21 08:11:50;;;;;;;13.00;10.75;;;27.30;63.90;;;;;;4987794;28;20049;-72
2022/07/21 08:14:16;;;;;;;12.55;10.07;;;27.40;63.70;;;;;;4974374;28;20026;-71
2022/07/21 08:16:42;;;;;;;13.32;10.57;;;27.50;63.70;;;;;;4992513;28;20485;-72
2022/07/21 08:19:08;;;;;;;14.40;11.20;;;27.60;63.80;;;;;;4992170;28;20031;-71
2022/07/21 08:21:34;;;;;;;14.40;10.55;;;27.80;63.40;;;;;;4991875;28;20030;-72
2022/07/21 08:24:03;;;;;;;13.05;9.80;;;27.80;63.20;;;;;;4992995;28;20038;-71
2022/07/21 08:26:29;;;;;;;11.93;9.75;;;28.00;62.80;;;;;;4991677;28;20038;-71
2022/07/21 08:28:56;;;;;;;14.48;10.57;;;28.10;63.00;;;;;;4988256;28;20026;-72
2022/07/21 08:31:23;;;;;;;12.82;9.88;;;28.30;62.70;;;;;;4991393;28;20030;-71
2022/07/21 08:33:49;;;;;;;11.57;10.38;;;28.40;62.30;;;;;;4991335;28;20042;-71
2022/07/21 08:36:15;;;;;;;10.77;9.15;;;28.50;61.40;;;;;;4992509;28;20541;-71
2022/07/21 08:38:43;;;;;;;13.07;10.50;;;28.70;61.20;;;;;;4991627;28;20026;-71
2022/07/21 08:41:09;;;;;;;12.02;9.63;;;28.70;61.40;;;;;;4973770;28;20027;-72
2022/07/21 08:43:35;;;;;;;10.70;9.50;;;28.80;61.10;;;;;;4993146;28;20037;-72
2022/07/21 08:46:02;;;;;;;13.38;10.73;;;28.90;61.60;;;;;;4992082;28;20056;-71
2022/07/21 08:48:29;;;;;;;10.93;9.50;;;29.00;61.20;;;;;;4991811;28;20106;-71
2022/07/21 08:50:56;;;;;;;18.02;9.88;;;29.10;60.70;;;;;;4990941;28;20057;-70
2022/07/21 08:53:22;;;;;;;12.27;9.77;;;29.20;60.60;;;;;;4991357;28;20018;-70
2022/07/21 08:55:48;;;;;;;11.13;9.38;;;29.20;60.70;;;;;;4989375;28;20022;-71
2022/07/21 08:58:14;;;;;;;12.70;10.65;;;29.30;60.40;;;;;;4989687;28;20030;-71
2022/07/21 09:00:45;;;;;;;14.50;9.98;;;29.40;59.90;;;;;;4992475;28;20035;-71
2022/07/21 09:03:13;;;;;;;10.85;9.35;;;29.50;60.30;;;;;;4970660;28;20055;-71
2022/07/21 09:05:40;;;;;;;15.48;9.70;;;29.60;59.90;;;;;;4985597;28;20038;-71
2022/07/21 09:08:06;;;;;;;10.77;9.38;;;29.70;59.30;;;;;;4989720;28;20029;-71
2022/07/21 09:10:33;;;;;;;11.82;9.15;;;29.80;59.40;;;;;;4973713;28;20120;-71
2022/07/21 09:13:06;;;;;;;11.73;9.05;;;29.80;59.30;;;;;;4990071;28;20034;-71
2022/07/21 09:15:32;;;;;;;10.85;9.48;;;29.90;59.60;;;;;;4973989;28;20085;-72
2022/07/21 09:18:15;;;;;;;11.07;8.70;;;29.90;59.90;;;;;;4990324;28;20046;-71
2022/07/21 09:20:49;;;;;;;10.45;8.80;;;30.00;59.30;;;;;;4991197;28;20026;-71
2022/07/21 09:23:18;;;;;;;13.35;9.13;;;30.10;59.00;;;;;;4990631;28;20110;-71
2022/07/21 09:25:46;;;;;;;9.27;7.75;;;30.30;58.90;;;;;;4991536;28;20065;-71
2022/07/21 09:28:17;;;;;;;10.70;8.85;;;30.30;58.50;;;;;;4973924;28;20110;-71
2022/07/21 09:31:04;;;;;;;11.30;8.52;;;30.30;57.70;;;;;;4993820;28;20043;-72
2022/07/21 09:33:35;;;;;;;13.40;7.43;;;30.40;57.90;;;;;;4991086;28;20042;-72
2022/07/21 09:36:09;;;;;;;16.85;8.88;;;30.40;57.70;;;;;;4991416;28;20084;-72
2022/07/21 09:38:44;;;;;;;11.10;7.93;;;30.40;57.40;;;;;;4991171;28;20081;-72
2022/07/21 09:41:16;;;;;;;10.80;8.00;;;30.50;57.40;;;;;;4993595;28;20062;-73
2022/07/21 09:43:55;;;;;;;10.35;8.00;;;30.60;57.20;;;;;;4995925;28;20034;-73
2022/07/21 09:46:29;;;;;;;11.18;7.47;;;30.60;56.90;;;;;;4994692;28;20053;-71
2022/07/21 09:49:00;;;;;;;9.40;8.15;;;30.60;57.00;;;;;;4995516;28;20026;-72
2022/07/21 09:51:37;;;;;;;10.23;7.70;;;30.70;57.00;;;;;;4995319;28;20065;-71
2022/07/21 09:54:09;;;;;;;9.15;7.60;;;30.80;56.90;;;;;;4978105;28;20023;-71
2022/07/21 09:56:44;;;;;;;12.48;8.73;;;30.80;56.90;;;;;;4977550;28;20470;-72
2022/07/21 09:59:12;;;;;;;10.65;8.07;;;30.90;56.70;;;;;;4980588;28;20045;-71
2022/07/21 10:01:40;;;;;;;8.27;7.40;;;31.00;56.40;;;;;;4993923;28;20624;-71
2022/07/21 10:04:06;;;;;;;9.55;7.55;;;31.10;56.60;;;;;;4995960;28;20034;-72
2022/07/21 10:06:34;;;;;;;11.50;7.55;;;31.20;56.40;;;;;;4993941;28;20041;-70
2022/07/21 10:09:02;;;;;;;7.88;5.93;;;31.30;56.00;;;;;;4994161;28;20031;-72
2022/07/21 10:11:28;;;;;;;8.75;6.47;;;31.30;56.00;;;;;;4995000;28;20489;-72
2022/07/21 10:13:56;;;;;;;8.30;6.70;;;31.40;56.00;;;;;;4993836;28;20081;-70
2022/07/21 10:16:22;;;;;;;7.85;6.70;;;31.50;55.70;;;;;;4995466;28;20146;-72
2022/07/21 10:19:04;;;;;;;12.07;6.55;;;31.60;55.50;;;;;;4992616;28;20489;-73
2022/07/21 10:21:40;;;;;;;7.55;5.85;;;31.70;55.90;;;;;;4993804;28;20030;-73
2022/07/21 10:24:11;;;;;;;9.52;6.32;;;31.80;54.80;;;;;;4994397;28;20034;-72
2022/07/21 10:26:58;;;;;;;6.18;5.50;;;31.80;54.40;;;;;;4992331;28;20034;-70
2022/07/21 10:29:49;;;;;;;8.18;5.97;;;31.80;54.10;;;;;;4994709;28;20062;-69
2022/07/21 10:32:16;;;;;;;7.40;5.82;;;31.90;54.70;;;;;;4993645;28;20050;-69
2022/07/21 10:34:43;;;;;;;7.07;5.97;;;31.90;54.30;;;;;;4992433;28;20054;-68
2022/07/21 10:37:09;;;;;;;7.75;6.03;;;31.90;54.60;;;;;;4993084;28;20042;-68
2022/07/21 10:39:36;;;;;;;7.40;5.35;;;32.00;54.40;;;;;;4994389;28;20030;-69
2022/07/21 10:42:14;;;;;;;9.27;6.00;;;32.00;54.40;;;;;;4993942;28;20034;-69
2022/07/21 10:44:43;;;;;;;8.13;5.68;;;31.90;54.00;;;;;;4994461;28;20038;-69
2022/07/21 10:47:19;;;;;;;12.13;6.10;;;31.90;54.50;;;;;;4993252;28;20044;-69
2022/07/21 10:49:51;;;;;;;6.93;5.50;;;31.90;54.00;;;;;;4993155;28;20026;-69
2022/07/21 10:52:35;;;;;;;6.28;5.18;;;31.80;53.60;;;;;;4993264;28;20473;-69
2022/07/21 10:55:28;;;;;;;8.30;5.45;;;31.70;53.50;;;;;;4991268;28;20033;-70
2022/07/21 10:58:14;;;;;;;7.60;5.80;;;31.50;53.30;;;;;;4987198;28;20018;-69
2022/07/21 11:00:50;;;;;;;6.78;5.18;;;31.50;53.60;;;;;;4993317;28;20034;-69
2022/07/21 11:03:15;;;;;;;6.47;5.40;;;31.50;53.30;;;;;;4993859;28;20497;-69
2022/07/21 11:06:14;;;;;;;5.80;4.78;;;31.50;53.40;;;;;;4991286;28;20034;-70
2022/07/21 11:08:43;;;;;;;6.15;4.32;;;31.40;53.10;;;;;;4978629;28;20038;-70
2022/07/21 11:11:13;;;;;;;6.75;5.07;;;31.40;53.10;;;;;;4992686;28;20049;-69
2022/07/21 11:14:06;;;;;;;8.65;5.20;;;31.40;53.50;;;;;;4991803;28;20234;-69
2022/07/21 11:16:52;;;;;;;9.18;5.45;;;31.40;54.10;;;;;;4992740;28;20038;-69
2022/07/21 11:19:49;;;;;;;7.57;4.80;;;31.40;53.90;;;;;;4992193;28;20026;-69
2022/07/21 11:22:29;;;;;;;6.63;5.22;;;31.40;54.20;;;;;;4989271;28;20082;-69
2022/07/21 11:25:05;;;;;;;7.80;5.30;;;31.40;53.90;;;;;;4992259;28;20044;-70
2022/07/21 11:27:36;;;;;;;8.18;4.60;;;31.40;54.20;;;;;;4993168;28;20038;-70
2022/07/21 11:30:08;;;;;;;6.38;4.63;;;31.40;53.60;;;;;;4992798;28;20037;-69
2022/07/21 11:32:34;;;;;;;6.88;4.88;;;31.40;53.60;;;;;;4976635;28;20042;-69
2022/07/21 11:35:03;;;;;;;5.35;4.30;;;31.50;54.30;;;;;;4992052;28;20047;-70
2022/07/21 11:37:32;;;;;;;5.30;4.80;;;31.60;53.60;;;;;;4989970;28;20492;-70
2022/07/21 11:40:01;;;;;;;5.95;4.80;;;31.70;54.10;;;;;;4989276;28;20038;-70
2022/07/21 11:42:27;;;;;;;14.05;5.53;;;31.70;54.20;;;;;;4992667;28;20034;-70
2022/07/21 11:44:53;;;;;;;7.88;5.15;;;31.70;53.90;;;;;;4992725;28;20073;-70
2022/07/21 11:47:25;;;;;;;9.65;5.50;;;31.70;53.50;;;;;;4993075;28;20026;-70
2022/07/21 11:49:53;;;;;;;8.35;5.22;;;31.70;53.80;;;;;;4992222;28;20105;-70
2022/07/21 11:52:24;;;;;;;8.60;4.78;;;31.70;53.50;;;;;;4992986;28;20041;-70
2022/07/21 11:54:52;;;;;;;7.22;5.03;;;31.60;53.90;;;;;;4993284;28;20122;-70
2022/07/21 11:57:20;;;;;;;8.13;4.90;;;31.60;53.60;;;;;;4992540;28;20030;-70
2022/07/21 11:59:47;;;;;;;5.82;4.55;;;31.60;53.60;;;;;;4972399;28;20501;-70
2022/07/21 12:02:24;;;;;;;5.88;4.68;;;31.60;53.80;;;;;;4989309;28;20056;-70
2022/07/21 12:04:58;;;;;;;6.65;4.97;;;31.60;53.60;;;;;;4990721;28;20042;-70
2022/07/21 12:07:41;;;;;;;8.57;5.22;;;31.50;54.10;;;;;;4992587;28;20112;-70
2022/07/21 12:10:12;;;;;;;6.13;5.00;;;31.50;53.80;;;;;;4991641;28;20101;-70
2022/07/21 12:12:46;;;;;;;8.30;5.47;;;31.40;54.20;;;;;;4992630;28;20037;-70
2022/07/21 12:15:22;;;;;;;5.93;4.90;;;31.40;54.00;;;;;;4991937;28;20034;-70
2022/07/21 12:17:56;;;;;;;10.25;5.60;;;31.30;54.10;;;;;;4992345;28;20050;-70
2022/07/21 12:20:27;;;;;;;6.60;5.15;;;31.20;54.30;;;;;;4989394;28;20465;-69
2022/07/21 12:22:56;;;;;;;11.27;5.40;;;31.10;54.30;;;;;;4992149;28;20038;-69
2022/07/21 12:25:36;;;;;;;5.97;5.38;;;31.00;54.80;;;;;;4992421;28;20506;-70
2022/07/21 12:28:04;;;;;;;6.90;5.28;;;30.90;54.90;;;;;;4996111;28;20120;-69
2022/07/21 12:30:33;;;;;;;6.63;5.13;;;30.80;55.40;;;;;;4992254;28;20053;-69
2022/07/21 12:33:05;;;;;;;8.85;4.70;;;30.80;55.20;;;;;;4989565;28;20236;-70
2022/07/21 12:35:31;;;;;;;8.43;5.78;;;30.60;55.60;;;;;;4992716;28;20046;-70
2022/07/21 12:38:03;;;;;;;11.35;5.90;;;30.50;55.30;;;;;;4991152;28;20022;-70
2022/07/21 12:40:30;;;;;;;9.00;5.63;;;30.40;55.70;;;;;;4991723;28;20026;-70
2022/07/21 12:43:13;;;;;;;6.63;5.18;;;30.30;56.00;;;;;;4990895;28;20034;-70
2022/07/21 12:45:54;;;;;;;9.35;5.20;;;30.30;56.20;;;;;;4992258;28;20046;-70